Copeland, Alabama
Current Conditions -  °F | °C
As of 1:58 AM on Sunday 26 Oct 2014 (Local Time) from KMEI Reporting Station
Clear Clear  
Wind Chill: 55°   Ceiling: Unl
Heat Index: 55°   Visibility: 8mi
Dew Point: 53°   Wind: 0mph
Humidity: 93%   Direction: NA
Pressure: 30.05"   Gusts: NA
Location:  31.6272°N, 88.354°W
Report Text: KMEI 260658Z AUTO 00000KT 8SM R01/5000VP6000FT CLR 13/12 A3005 RMK AO2 SLP174 T01280117
Loading
Personal Weather Stations






























Interactive Weather Map
Tropical Storm Tracking
New forecast layout! Learn more

10-Day Weather Forecast

Advertisements
Track Severe Weather on mobile